createdAt,value
2023-01-28T00:00:04.169Z,96598.94
2023-01-28T00:02:32.644Z,96605.97
2023-01-28T00:05:02.485Z,96602.47
2023-01-28T00:07:31.067Z,96599.84
2023-01-28T00:09:59.615Z,96604.16
2023-01-28T00:12:29.708Z,96607.66
2023-01-28T00:14:58.127Z,96601.63
2023-01-28T00:17:26.570Z,96601.63
2023-01-28T00:19:55.564Z,96605.78
2023-01-28T00:22:25.365Z,96609.53
2023-01-28T00:24:53.821Z,96608.72
2023-01-28T00:27:22.272Z,96606.09
2023-01-28T00:29:50.715Z,96607.75
2023-01-28T00:32:19.118Z,96613.06
2023-01-28T00:34:47.578Z,96608.81
2023-01-28T00:37:15.972Z,96608.81
2023-01-28T00:39:45.746Z,96607.97
2023-01-28T00:42:14.185Z,96614.66
2023-01-28T00:44:42.590Z,96609.53
2023-01-28T00:47:11.120Z,96610.28
2023-01-28T00:49:39.556Z,96610.19
2023-01-28T00:52:08.385Z,96612.13
2023-01-28T00:54:37.689Z,96608.06
2023-01-28T00:57:08.128Z,96614.31
2023-01-28T00:59:36.536Z,96609.00
2023-01-28T01:02:12.691Z,96606.94
2023-01-28T01:04:41.954Z,96609.63
2023-01-28T01:07:10.355Z,96619.41
2023-01-28T01:09:38.781Z,96612.47
2023-01-28T01:12:09.022Z,96607.25
2023-01-28T01:14:37.448Z,96616.94
2023-01-28T01:17:05.937Z,96612.56
2023-01-28T01:19:34.328Z,96612.94
2023-01-28T01:22:02.743Z,96605.50
2023-01-28T01:24:34.097Z,96611.75
2023-01-28T01:27:02.675Z,96600.53
2023-01-28T01:29:33.836Z,96610.94
2023-01-28T01:32:02.352Z,96608.25
2023-01-28T01:34:30.796Z,96603.66
2023-01-28T01:37:00.135Z,96613.88
2023-01-28T01:39:28.552Z,96617.13
2023-01-28T01:41:57.315Z,96612.63
2023-01-28T01:45:02.334Z,96620.13
2023-01-28T01:47:42.491Z,96626.06
2023-01-28T01:50:17.802Z,96626.63
2023-01-28T01:52:48.601Z,96628.31
2023-01-28T01:55:22.874Z,96624.75
2023-01-28T01:57:57.901Z,96636.00
2023-01-28T02:00:28.788Z,96624.03
2023-01-28T02:02:58.989Z,96627.34
2023-01-28T02:05:27.795Z,96628.09
2023-01-28T02:08:20.394Z,96629.78
2023-01-28T02:10:51.805Z,96629.78
2023-01-28T02:13:22.237Z,96625.50
2023-01-28T02:15:52.774Z,96631.44
2023-01-28T02:18:21.169Z,96635.50
2023-01-28T02:21:20.778Z,96628.63
2023-01-28T02:24:15.547Z,96633.84
2023-01-28T02:27:15.915Z,96623.63
2023-01-28T02:29:51.842Z,96627.06
2023-01-28T02:32:25.553Z,96634.97
2023-01-28T02:34:59.103Z,96640.28
2023-01-28T02:37:35.272Z,96641.84
2023-01-28T02:40:10.754Z,96640.19
2023-01-28T02:42:41.473Z,96643.72
2023-01-28T02:45:21.577Z,96637.69
2023-01-28T02:47:57.810Z,96638.59
2023-01-28T02:50:34.553Z,96637.59
2023-01-28T02:53:35.983Z,96637.38
2023-01-28T02:56:13.218Z,96640.91
2023-01-28T02:58:48.818Z,96635.81
2023-01-28T03:01:27.308Z,96641.84
2023-01-28T03:04:00.805Z,96637.69
2023-01-28T03:06:35.794Z,96634.34
2023-01-28T03:09:26.906Z,96633.59
2023-01-28T03:12:15.332Z,96643.06
2023-01-28T03:15:04.299Z,96645.81
2023-01-28T03:17:57.842Z,96647.63
2023-01-28T03:20:47.725Z,96647.63
2023-01-28T03:23:40.326Z,96650.56
2023-01-28T03:26:30.340Z,96650.78
2023-01-28T03:29:23.328Z,96652.50
2023-01-28T03:32:10.288Z,96660.31
2023-01-28T03:34:58.637Z,96656.88
2023-01-28T03:37:28.609Z,96658.66
2023-01-28T03:39:58.154Z,96661.38
2023-01-28T03:42:26.578Z,96664.06
2023-01-28T03:44:54.102Z,96663.31
2023-01-28T03:47:24.217Z,96673.56
2023-01-28T03:49:55.640Z,96671.69
2023-01-28T03:52:25.971Z,96678.53
2023-01-28T03:54:54.449Z,96675.94
2023-01-28T03:57:25.049Z,96669.91
2023-01-28T03:59:54.060Z,96670.66
2023-01-28T04:02:23.857Z,96671.88
2023-01-28T04:04:53.642Z,96672.81
2023-01-28T04:07:22.039Z,96674.69
2023-01-28T04:09:50.740Z,96677.28
2023-01-28T04:12:19.511Z,96679.88
2023-01-28T04:14:47.953Z,96676.34
2023-01-28T04:17:16.343Z,96679.88
2023-01-28T04:19:44.885Z,96685.09
2023-01-28T04:22:14.804Z,96677.16
2023-01-28T04:24:43.328Z,96681.53
2023-01-28T04:27:11.787Z,96679.69
2023-01-28T04:29:40.247Z,96684.78
2023-01-28T04:32:11.313Z,96682.09
2023-01-28T04:34:40.070Z,96689.81
2023-01-28T04:37:08.525Z,96692.28
2023-01-28T04:39:38.460Z,96691.38
2023-01-28T04:42:06.884Z,96698.25
2023-01-28T04:44:35.248Z,96700.00
2023-01-28T04:47:03.649Z,96704.56
2023-01-28T04:49:32.683Z,96704.66
2023-01-28T04:52:01.311Z,96708.13
2023-01-28T04:54:29.732Z,96713.34
2023-01-28T04:56:59.423Z,96713.34
2023-01-28T04:59:27.915Z,96708.03
2023-01-28T05:01:56.388Z,96714.91
2023-01-28T05:04:25.027Z,96713.03
2023-01-28T05:06:53.494Z,96713.84
2023-01-28T05:09:22.093Z,96716.47
2023-01-28T05:11:50.495Z,96723.34
2023-01-28T05:14:20.458Z,96720.75
2023-01-28T05:16:48.820Z,96724.28
2023-01-28T05:19:17.245Z,96721.78
2023-01-28T05:21:45.756Z,96718.44
2023-01-28T05:24:14.414Z,96726.34
2023-01-28T05:26:43.052Z,96725.50
2023-01-28T05:29:11.667Z,96731.56
2023-01-28T05:31:41.595Z,96731.47
2023-01-28T05:34:09.966Z,96729.59
2023-01-28T05:36:38.563Z,96731.34
2023-01-28T05:39:12.189Z,96732.28
2023-01-28T05:41:40.618Z,96733.22
2023-01-28T05:44:08.991Z,96738.41
2023-01-28T05:46:37.598Z,96741.75
2023-01-28T05:49:09.225Z,96742.50
2023-01-28T05:51:39.349Z,96747.91
2023-01-28T05:54:07.966Z,96754.91
2023-01-28T05:56:36.696Z,96757.38
2023-01-28T05:59:05.829Z,96757.38
2023-01-28T06:01:34.434Z,96761.94
2023-01-28T06:04:02.855Z,96762.78
2023-01-28T06:06:32.597Z,96766.31
2023-01-28T06:09:00.985Z,96768.00
2023-01-28T06:11:29.499Z,96774.88
2023-01-28T06:13:57.937Z,96775.72
2023-01-28T06:16:26.305Z,96772.25
2023-01-28T06:18:54.823Z,96773.94
2023-01-28T06:21:23.316Z,96773.94
2023-01-28T06:23:53.095Z,96769.56
2023-01-28T06:26:21.513Z,96773.94
2023-01-28T06:28:49.911Z,96778.19
2023-01-28T06:31:18.440Z,96785.28
2023-01-28T06:33:46.949Z,96785.28
2023-01-28T06:36:15.400Z,96793.81
2023-01-28T06:38:43.791Z,96799.03
2023-01-28T06:41:13.611Z,96793.00
2023-01-28T06:43:41.968Z,96798.13
2023-01-28T06:46:10.512Z,96793.81
2023-01-28T06:48:38.923Z,96797.28
2023-01-28T06:51:07.387Z,96799.03
2023-01-28T06:53:36.209Z,96804.34
2023-01-28T06:56:05.100Z,96801.75
2023-01-28T06:58:35.364Z,96804.16
2023-01-28T07:01:03.962Z,96803.97
2023-01-28T07:03:32.348Z,96800.50
2023-01-28T07:06:02.017Z,96808.13
2023-01-28T07:08:30.692Z,96810.75
2023-01-28T07:10:59.113Z,96810.75
2023-01-28T07:13:27.769Z,96816.69
2023-01-28T07:15:57.574Z,96814.91
2023-01-28T07:18:26.136Z,96820.03
2023-01-28T07:20:54.665Z,96820.03
2023-01-28T07:23:24.622Z,96817.63
2023-01-28T07:25:52.960Z,96818.66
2023-01-28T07:28:22.284Z,96816.13
2023-01-28T07:30:53.607Z,96819.78
2023-01-28T07:33:23.672Z,96831.88
2023-01-28T07:35:52.340Z,96835.31
2023-01-28T07:38:20.709Z,96833.44
2023-01-28T07:40:49.246Z,96833.34
2023-01-28T07:43:19.635Z,96839.28
2023-01-28T07:45:48.711Z,96835.00
2023-01-28T07:48:17.197Z,96839.47
2023-01-28T07:50:48.593Z,96850.53
2023-01-28T07:53:17.675Z,96851.28
2023-01-28T07:55:46.078Z,96851.09
2023-01-28T07:58:14.521Z,96851.63
2023-01-28T08:00:43.069Z,96853.31
2023-01-28T08:03:15.719Z,96861.06
2023-01-28T08:05:48.148Z,96859.19
2023-01-28T08:08:17.258Z,96856.66
2023-01-28T08:10:46.208Z,96863.34
2023-01-28T08:13:16.721Z,96871.09
2023-01-28T08:15:45.697Z,96878.81
2023-01-28T08:18:16.396Z,96877.69
2023-01-28T08:20:46.533Z,96876.72
2023-01-28T08:23:18.285Z,96881.94
2023-01-28T08:25:47.370Z,96878.59
2023-01-28T08:28:17.903Z,96883.72
2023-01-28T08:30:47.062Z,96887.91
2023-01-28T08:33:17.668Z,96891.53
2023-01-28T08:35:46.533Z,96889.09
2023-01-28T08:38:17.696Z,96891.84
2023-01-28T08:40:46.164Z,96907.16
2023-01-28T08:43:14.974Z,96907.81
2023-01-28T08:45:43.387Z,96899.06
2023-01-28T08:48:15.915Z,96898.88
2023-01-28T08:50:44.784Z,96900.44
2023-01-28T08:53:14.547Z,96906.31
2023-01-28T08:55:45.105Z,96907.03
2023-01-28T08:58:15.910Z,96901.19
2023-01-28T09:00:45.948Z,96905.66
2023-01-28T09:03:14.490Z,96900.34
2023-01-28T09:05:43.016Z,96904.53
2023-01-28T09:08:13.193Z,96900.81
2023-01-28T09:10:42.380Z,96903.13
2023-01-28T09:13:15.102Z,96905.44
2023-01-28T09:15:44.034Z,96900.88
2023-01-28T09:18:12.682Z,96913.38
2023-01-28T09:20:41.477Z,96913.00
2023-01-28T09:23:11.101Z,96914.34
2023-01-28T09:25:39.642Z,96913.28
2023-01-28T09:28:08.752Z,96915.59
2023-01-28T09:30:39.735Z,96919.50
2023-01-28T09:33:08.587Z,96913.16
2023-01-28T09:35:37.201Z,96915.59
2023-01-28T09:38:05.812Z,96918.56
2023-01-28T09:40:38.194Z,96912.28
2023-01-28T09:43:41.545Z,96918.91
2023-01-28T09:46:14.728Z,96924.91
2023-01-28T09:48:46.334Z,96918.81
2023-01-28T09:51:29.585Z,96916.75
2023-01-28T09:54:01.749Z,96910.50
2023-01-28T09:56:33.191Z,96916.75
2023-01-28T09:59:19.492Z,96911.53
2023-01-28T10:01:57.592Z,96921.66
2023-01-28T10:04:40.418Z,96914.47
2023-01-28T10:07:20.296Z,96917.41
2023-01-28T10:09:55.759Z,96914.63
2023-01-28T10:12:58.636Z,96906.56
2023-01-28T10:15:50.035Z,96902.63
2023-01-28T10:18:26.719Z,96897.44
2023-01-28T10:20:59.070Z,96892.44
2023-01-28T10:23:33.951Z,96897.16
2023-01-28T10:26:12.696Z,96888.47
2023-01-28T10:28:41.261Z,96889.41
2023-01-28T10:31:14.321Z,96881.59
2023-01-28T10:33:44.133Z,96889.31
2023-01-28T10:36:12.599Z,96891.59
2023-01-28T10:38:41.061Z,96887.31
2023-01-28T10:41:25.810Z,96881.56
2023-01-28T10:43:54.501Z,96885.34
2023-01-28T10:46:28.059Z,96881.44
2023-01-28T10:49:02.611Z,96887.09
2023-01-28T10:51:36.883Z,96876.53
2023-01-28T10:54:21.934Z,96879.34
2023-01-28T10:56:54.220Z,96880.38
2023-01-28T10:59:27.022Z,96876.16
2023-01-28T11:01:58.347Z,96872.69
2023-01-28T11:04:30.773Z,96869.09
2023-01-28T11:07:02.014Z,96868.13
2023-01-28T11:09:32.047Z,96862.47
2023-01-28T11:12:11.169Z,96868.47
2023-01-28T11:14:39.538Z,96868.91
2023-01-28T11:17:18.384Z,96875.03
2023-01-28T11:19:48.703Z,96865.03
2023-01-28T11:22:25.688Z,96862.31
2023-01-28T11:24:54.603Z,96863.38
2023-01-28T11:27:30.013Z,96867.66
2023-01-28T11:30:03.098Z,96880.88
2023-01-28T11:32:32.142Z,96876.47
2023-01-28T11:35:01.896Z,96874.78
2023-01-28T11:37:30.629Z,96881.44
2023-01-28T11:40:03.586Z,96882.00
2023-01-28T11:42:32.935Z,96875.19
2023-01-28T11:45:01.333Z,96880.88
2023-01-28T11:47:42.234Z,96876.09
2023-01-28T11:50:26.817Z,96881.53
2023-01-28T11:53:17.053Z,96882.81
2023-01-28T11:56:01.505Z,96878.53
2023-01-28T11:58:43.088Z,96881.25
2023-01-28T12:01:16.102Z,96880.03
2023-01-28T12:04:13.415Z,96886.44
2023-01-28T12:06:59.616Z,96879.03
2023-01-28T12:09:35.790Z,96876.66
2023-01-28T12:12:18.878Z,96882.19
2023-01-28T12:15:09.482Z,96881.06
2023-01-28T12:17:49.587Z,96875.53
2023-01-28T12:20:27.022Z,96880.91
2023-01-28T12:23:14.258Z,96879.53
2023-01-28T12:26:00.733Z,96885.06
2023-01-28T12:28:45.038Z,96884.69
2023-01-28T12:31:40.217Z,96885.00
2023-01-28T12:34:47.941Z,96887.94
2023-01-28T12:37:24.130Z,96885.53
2023-01-28T12:40:16.140Z,96889.28
2023-01-28T12:42:51.556Z,96885.34
2023-01-28T12:45:24.506Z,96888.47
2023-01-28T12:47:58.161Z,96893.28
2023-01-28T12:50:30.820Z,96892.34
2023-01-28T12:53:04.145Z,96891.72
2023-01-28T12:55:42.434Z,96893.69
2023-01-28T12:58:20.945Z,96896.63
2023-01-28T13:00:52.471Z,96897.75
2023-01-28T13:03:30.201Z,96900.50
2023-01-28T13:06:02.889Z,96903.63
2023-01-28T13:08:31.366Z,96904.53
2023-01-28T13:11:03.786Z,96902.88
2023-01-28T13:13:34.888Z,96908.19
2023-01-28T13:16:05.476Z,96905.78
2023-01-28T13:18:45.363Z,96903.06
2023-01-28T13:21:32.604Z,96911.53
2023-01-28T13:24:20.949Z,96913.31
2023-01-28T13:26:52.769Z,96911.53
2023-01-28T13:29:33.148Z,96913.41
2023-01-28T13:32:03.882Z,96915.94
2023-01-28T13:34:36.302Z,96914.97
2023-01-28T13:37:09.044Z,96919.38
2023-01-28T13:39:50.605Z,96916.75
2023-01-28T13:42:29.040Z,96919.38
2023-01-28T13:44:58.356Z,96923.78
2023-01-28T13:47:34.016Z,96941.09
2023-01-28T13:50:05.507Z,96932.34
2023-01-28T13:52:37.818Z,96933.91
2023-01-28T13:55:33.335Z,96936.50
2023-01-28T13:58:51.735Z,96939.84
2023-01-28T14:02:00.149Z,96939.03
2023-01-28T14:05:12.516Z,96938.91
2023-01-28T14:08:27.103Z,96931.91
2023-01-28T14:11:12.763Z,96939.66
2023-01-28T14:14:06.981Z,96939.53
2023-01-28T14:16:42.665Z,96938.59
2023-01-28T14:19:14.383Z,96944.75
2023-01-28T14:21:42.897Z,96945.81
2023-01-28T14:24:18.316Z,96949.97
2023-01-28T14:26:54.309Z,96949.88
2023-01-28T14:29:38.064Z,96950.59
2023-01-28T14:32:12.961Z,96952.38
2023-01-28T14:34:43.174Z,96961.19
2023-01-28T14:37:15.645Z,96961.19
2023-01-28T14:39:47.868Z,96963.88
2023-01-28T14:42:22.861Z,96967.41
2023-01-28T14:45:02.049Z,96970.03
2023-01-28T14:47:45.405Z,96968.38
2023-01-28T14:50:32.240Z,96972.75
2023-01-28T14:53:23.699Z,96973.69
2023-01-28T14:56:00.263Z,96979.84
2023-01-28T14:58:33.512Z,96987.88
2023-01-28T15:01:03.352Z,96981.19
2023-01-28T15:03:33.134Z,96983.06
2023-01-28T15:06:13.963Z,96985.03
2023-01-28T15:08:42.431Z,96988.69
2023-01-28T15:11:16.394Z,96986.19
2023-01-28T15:13:47.771Z,96985.31
2023-01-28T15:16:22.590Z,96991.59
2023-01-28T15:18:51.940Z,96996.16
2023-01-28T15:21:21.954Z,97001.63
2023-01-28T15:23:53.892Z,97003.34
2023-01-28T15:26:24.559Z,97003.47
2023-01-28T15:28:54.343Z,97003.13
2023-01-28T15:31:28.313Z,97003.72
2023-01-28T15:33:58.212Z,97009.88
2023-01-28T15:36:27.074Z,97006.13
2023-01-28T15:38:55.949Z,97006.84
2023-01-28T15:41:28.475Z,97012.00
2023-01-28T15:43:57.034Z,97012.81
2023-01-28T15:46:27.222Z,97017.28
2023-01-28T15:49:00.789Z,97024.19
2023-01-28T15:51:32.097Z,97014.59
2023-01-28T15:54:04.445Z,97023.25
2023-01-28T15:56:32.887Z,97025.03
2023-01-28T15:59:19.026Z,97019.16
2023-01-28T16:01:48.947Z,97019.38
2023-01-28T16:04:25.616Z,97017.88
2023-01-28T16:06:56.000Z,97028.53
2023-01-28T16:09:27.966Z,97026.94
2023-01-28T16:12:03.006Z,97034.88
2023-01-28T16:14:41.517Z,97033.19
2023-01-28T16:17:12.378Z,97033.41
2023-01-28T16:19:46.052Z,97031.88
2023-01-28T16:22:21.332Z,97034.50
2023-01-28T16:24:52.275Z,97035.34
2023-01-28T16:27:23.779Z,97028.44
2023-01-28T16:29:52.496Z,97036.47
2023-01-28T16:32:35.361Z,97036.56
2023-01-28T16:35:05.803Z,97041.78
2023-01-28T16:37:34.152Z,97042.16
2023-01-28T16:40:02.707Z,97043.56
2023-01-28T16:42:41.234Z,97050.06
2023-01-28T16:45:17.895Z,97052.16
2023-01-28T16:47:47.870Z,97055.97
2023-01-28T16:50:18.392Z,97057.06
2023-01-28T16:52:49.142Z,97059.94
2023-01-28T16:55:19.915Z,97057.63
2023-01-28T16:57:50.404Z,97058.81
2023-01-28T17:00:20.632Z,97063.38
2023-01-28T17:02:57.115Z,97062.63
2023-01-28T17:05:26.862Z,97067.31
2023-01-28T17:07:59.224Z,97068.38
2023-01-28T17:10:27.768Z,97068.50
2023-01-28T17:12:56.133Z,97069.34
2023-01-28T17:15:24.481Z,97070.16
2023-01-28T17:17:53.849Z,97076.19
2023-01-28T17:20:23.760Z,97075.13
2023-01-28T17:22:52.175Z,97070.38
2023-01-28T17:25:20.682Z,97071.84
2023-01-28T17:27:50.122Z,97075.50
2023-01-28T17:30:20.863Z,97082.72
2023-01-28T17:32:49.229Z,97083.84
2023-01-28T17:35:17.959Z,97090.75
2023-01-28T17:37:48.004Z,97087.13
2023-01-28T17:40:16.470Z,97098.84
2023-01-28T17:42:44.926Z,97093.66
2023-01-28T17:45:13.846Z,97096.50
2023-01-28T17:47:42.426Z,97096.72
2023-01-28T17:50:12.523Z,97101.25
2023-01-28T17:52:41.854Z,97100.22
2023-01-28T17:55:12.102Z,97105.44
2023-01-28T17:57:40.487Z,97104.59
2023-01-28T18:00:11.802Z,97097.69
2023-01-28T18:02:40.227Z,97102.09
2023-01-28T18:05:09.175Z,97107.13
2023-01-28T18:07:37.583Z,97114.75
2023-01-28T18:10:07.534Z,97100.81
2023-01-28T18:12:37.575Z,97105.06
2023-01-28T18:15:07.049Z,97110.94
2023-01-28T18:17:35.754Z,97107.50
2023-01-28T18:20:06.133Z,97109.84
2023-01-28T18:22:35.101Z,97111.31
2023-01-28T18:25:03.534Z,97105.00
2023-01-28T18:27:31.968Z,97103.03
2023-01-28T18:30:01.801Z,97106.41
2023-01-28T18:32:30.177Z,97108.09
2023-01-28T18:34:58.619Z,97107.06
2023-01-28T18:37:26.991Z,97108.66
2023-01-28T18:39:55.925Z,97112.84
2023-01-28T18:42:24.329Z,97115.38
2023-01-28T18:44:52.747Z,97110.97
2023-01-28T18:47:23.027Z,97118.50
2023-01-28T18:49:54.006Z,97120.28
2023-01-28T18:52:22.472Z,97120.22
2023-01-28T18:54:50.934Z,97122.16
2023-01-28T18:57:20.925Z,97127.38
2023-01-28T18:59:49.329Z,97123.84
2023-01-28T19:02:17.725Z,97137.72
2023-01-28T19:04:47.507Z,97132.41
2023-01-28T19:07:15.961Z,97142.94
2023-01-28T19:09:44.396Z,97140.31
2023-01-28T19:12:12.810Z,97136.88
2023-01-28T19:14:41.444Z,97138.53
2023-01-28T19:17:09.875Z,97141.06
2023-01-28T19:19:38.293Z,97147.03
2023-01-28T19:22:08.279Z,97145.34
2023-01-28T19:24:36.731Z,97139.38
2023-01-28T19:27:05.937Z,97143.66
2023-01-28T19:29:34.375Z,97140.22
2023-01-28T19:32:04.589Z,97149.81
2023-01-28T19:34:33.099Z,97154.47
2023-01-28T19:37:01.771Z,97149.59
2023-01-28T19:39:32.343Z,97146.59
2023-01-28T19:42:02.210Z,97150.69
2023-01-28T19:44:30.708Z,97149.19
2023-01-28T19:46:59.450Z,97157.09
2023-01-28T19:49:27.938Z,97156.19
2023-01-28T19:51:56.441Z,97151.06
2023-01-28T19:54:25.102Z,97144.25
2023-01-28T19:56:54.892Z,97141.38
2023-01-28T19:59:23.419Z,97149.94
2023-01-28T20:01:51.982Z,97148.19
2023-01-28T20:04:20.369Z,97153.31
2023-01-28T20:06:50.603Z,97148.19
2023-01-28T20:09:20.683Z,97148.75
2023-01-28T20:11:51.398Z,97151.91
2023-01-28T20:14:21.554Z,97146.53
2023-01-28T20:16:50.078Z,97137.78
2023-01-28T20:19:19.899Z,97138.78
2023-01-28T20:21:51.640Z,97139.91
2023-01-28T20:24:20.047Z,97138.50
2023-01-28T20:26:48.484Z,97138.69
2023-01-28T20:29:20.046Z,97140.56
2023-01-28T20:32:05.364Z,97138.78
2023-01-28T20:34:39.153Z,97146.59
2023-01-28T20:37:10.110Z,97156.06
2023-01-28T20:39:38.544Z,97145.75
2023-01-28T20:42:09.426Z,97140.63
2023-01-28T20:44:37.995Z,97144.06
2023-01-28T20:47:07.811Z,97145.75
2023-01-28T20:49:36.328Z,97144.06
2023-01-28T20:52:05.689Z,97148.53
2023-01-28T20:54:34.062Z,97148.63
2023-01-28T20:57:02.485Z,97153.00
2023-01-28T20:59:32.285Z,97153.16
2023-01-28T21:02:01.253Z,97163.50
2023-01-28T21:04:31.248Z,97160.91
2023-01-28T21:06:59.640Z,97163.41
2023-01-28T21:09:28.325Z,97173.84
2023-01-28T21:11:56.723Z,97175.63
2023-01-28T21:14:25.172Z,97168.63
2023-01-28T21:16:53.959Z,97175.44
2023-01-28T21:19:22.874Z,97178.88
2023-01-28T21:21:52.691Z,97169.31
2023-01-28T21:24:21.094Z,97178.78
2023-01-28T21:26:49.602Z,97172.66
2023-01-28T21:29:18.854Z,97175.25
2023-01-28T21:31:47.336Z,97178.03
2023-01-28T21:34:16.050Z,97175.50
2023-01-28T21:36:44.794Z,97169.66
2023-01-28T21:39:14.654Z,97175.94
2023-01-28T21:41:43.043Z,97176.13
2023-01-28T21:44:12.782Z,97183.28
2023-01-28T21:46:44.150Z,97180.09
2023-01-28T21:49:12.538Z,97178.44
2023-01-28T21:51:46.150Z,97179.53
2023-01-28T21:54:18.038Z,97183.31
2023-01-28T21:56:47.988Z,97179.31
2023-01-28T21:59:30.044Z,97176.84
2023-01-28T22:02:00.443Z,97181.38
2023-01-28T22:04:31.391Z,97179.06
2023-01-28T22:07:00.516Z,97184.69
2023-01-28T22:09:31.194Z,97182.09
2023-01-28T22:11:59.697Z,97180.22
2023-01-28T22:14:28.259Z,97175.22
2023-01-28T22:16:56.736Z,97172.03
2023-01-28T22:19:25.200Z,97170.44
2023-01-28T22:21:53.738Z,97171.28
2023-01-28T22:24:24.455Z,97164.38
2023-01-28T22:26:55.503Z,97167.91
2023-01-28T22:29:25.425Z,97182.19
2023-01-28T22:31:54.971Z,97179.56
2023-01-28T22:34:23.830Z,97186.97
2023-01-28T22:36:52.703Z,97186.22
2023-01-28T22:39:21.093Z,97190.66
2023-01-28T22:41:49.702Z,97188.69
2023-01-28T22:44:20.796Z,97187.78
2023-01-28T22:46:49.366Z,97176.47
2023-01-28T22:49:17.887Z,97167.59
2023-01-28T22:51:46.446Z,97167.41
2023-01-28T22:54:15.277Z,97167.41
2023-01-28T22:56:43.786Z,97168.22
2023-01-28T22:59:12.825Z,97168.91
2023-01-28T23:01:42.690Z,97163.28
2023-01-28T23:04:11.245Z,97156.97
2023-01-28T23:06:39.883Z,97163.72
2023-01-28T23:09:08.262Z,97164.47
2023-01-28T23:11:36.737Z,97176.41
2023-01-28T23:14:23.230Z,97176.13
2023-01-28T23:17:10.481Z,97169.06
2023-01-28T23:20:05.062Z,97174.28
2023-01-28T23:22:57.532Z,97169.06
2023-01-28T23:25:26.005Z,97172.44
2023-01-28T23:27:54.446Z,97174.19
2023-01-28T23:30:25.187Z,97170.75
2023-01-28T23:32:57.707Z,97166.66
2023-01-28T23:35:26.939Z,97169.41
2023-01-28T23:37:56.587Z,97168.66
2023-01-28T23:40:28.057Z,97168.75
2023-01-28T23:42:56.684Z,97173.28
2023-01-28T23:45:25.316Z,97184.84
2023-01-28T23:47:55.214Z,97177.66
2023-01-28T23:50:24.030Z,97182.44
2023-01-28T23:52:52.400Z,97185.53
2023-01-28T23:55:20.893Z,97184.03
2023-01-28T23:57:49.349Z,97173.63
